sensor_id;sensor_type;location;lat;lon;timestamp;pressure;altitude;pressure_sealevel;temperature
79495;BMP180;68951;53.130;18.104;2023-05-10T00:01:00;101494.20;;;
79495;BMP180;68951;53.130;18.104;2023-05-10T00:03:27;101495.00;;;
79495;BMP180;68951;53.130;18.104;2023-05-10T00:05:54;101491.80;;;
79495;BMP180;68951;53.130;18.104;2023-05-10T00:08:21;101491.40;;;
79495;BMP180;68951;53.130;18.104;2023-05-10T00:10:48;101490.40;;;
79495;BMP180;68951;53.130;18.104;2023-05-10T00:13:15;101488.80;;;
79495;BMP180;68951;53.130;18.104;2023-05-10T00:15:42;101492.40;;;
79495;BMP180;68951;53.130;18.104;2023-05-10T00:18:09;101490.60;;;
79495;BMP180;68951;53.130;18.104;2023-05-10T00:20:36;101494.00;;;
79495;BMP180;68951;53.130;18.104;2023-05-10T00:23:03;101487.80;;;
79495;BMP180;68951;53.130;18.104;2023-05-10T00:25:30;101483.60;;;
79495;BMP180;68951;53.130;18.104;2023-05-10T00:27:56;101481.40;;;
79495;BMP180;68951;53.130;18.104;2023-05-10T00:30:24;101477.80;;;
79495;BMP180;68951;53.130;18.104;2023-05-10T00:32:52;101473.20;;;
79495;BMP180;68951;53.130;18.104;2023-05-10T00:35:19;101470.00;;;
79495;BMP180;68951;53.130;18.104;2023-05-10T00:37:45;101468.40;;;
79495;BMP180;68951;53.130;18.104;2023-05-10T00:40:13;101469.80;;;
79495;BMP180;68951;53.130;18.104;2023-05-10T00:42:40;101464.80;;;
79495;BMP180;68951;53.130;18.104;2023-05-10T00:45:07;101464.80;;;
79495;BMP180;68951;53.130;18.104;2023-05-10T00:47:34;101463.20;;;
79495;BMP180;68951;53.130;18.104;2023-05-10T00:50:02;101462.00;;;
79495;BMP180;68951;53.130;18.104;2023-05-10T00:52:29;101460.40;;;
79495;BMP180;68951;53.130;18.104;2023-05-10T00:54:57;101457.60;;;
79495;BMP180;68951;53.130;18.104;2023-05-10T00:57:24;101460.20;;;
79495;BMP180;68951;53.130;18.104;2023-05-10T00:59:51;101460.60;;;
79495;BMP180;68951;53.130;18.104;2023-05-10T01:02:18;101453.80;;;
79495;BMP180;68951;53.130;18.104;2023-05-10T01:04:45;101452.00;;;
79495;BMP180;68951;53.130;18.104;2023-05-10T01:07:12;101446.20;;;
79495;BMP180;68951;53.130;18.104;2023-05-10T01:09:39;101447.60;;;
79495;BMP180;68951;53.130;18.104;2023-05-10T01:12:06;101451.00;;;
79495;BMP180;68951;53.130;18.104;2023-05-10T01:14:34;101447.80;;;
79495;BMP180;68951;53.130;18.104;2023-05-10T01:17:04;101448.00;;;
79495;BMP180;68951;53.130;18.104;2023-05-10T01:19:34;101445.00;;;
79495;BMP180;68951;53.130;18.104;2023-05-10T01:25:23;101449.00;;;
79495;BMP180;68951;53.130;18.104;2023-05-10T01:34:18;101437.00;;;
79495;BMP180;68951;53.130;18.104;2023-05-10T01:37:09;101429.60;;;
79495;BMP180;68951;53.130;18.104;2023-05-10T01:40:13;101428.40;;;
79495;BMP180;68951;53.130;18.104;2023-05-10T01:42:51;101426.60;;;
79495;BMP180;68951;53.130;18.104;2023-05-10T01:48:11;101428.00;;;
79495;BMP180;68951;53.130;18.104;2023-05-10T01:50:43;101423.20;;;
79495;BMP180;68951;53.130;18.104;2023-05-10T01:53:12;101424.20;;;
79495;BMP180;68951;53.130;18.104;2023-05-10T01:55:52;101423.40;;;
79495;BMP180;68951;53.130;18.104;2023-05-10T01:58:26;101419.00;;;
79495;BMP180;68951;53.130;18.104;2023-05-10T02:00:54;101417.60;;;
79495;BMP180;68951;53.130;18.104;2023-05-10T02:03:23;101418.40;;;
79495;BMP180;68951;53.130;18.104;2023-05-10T02:05:54;101415.60;;;
79495;BMP180;68951;53.130;18.104;2023-05-10T02:08:22;101409.80;;;
79495;BMP180;68951;53.130;18.104;2023-05-10T02:10:55;101408.60;;;
79495;BMP180;68951;53.130;18.104;2023-05-10T02:13:25;101410.20;;;
79495;BMP180;68951;53.130;18.104;2023-05-10T02:15:56;101408.40;;;
79495;BMP180;68951;53.130;18.104;2023-05-10T02:18:26;101402.20;;;
79495;BMP180;68951;53.130;18.104;2023-05-10T02:20:55;101403.40;;;
79495;BMP180;68951;53.130;18.104;2023-05-10T02:23:23;101400.00;;;
79495;BMP180;68951;53.130;18.104;2023-05-10T02:25:53;101396.40;;;
79495;BMP180;68951;53.130;18.104;2023-05-10T02:28:24;101396.00;;;
79495;BMP180;68951;53.130;18.104;2023-05-10T02:30:54;101397.60;;;
79495;BMP180;68951;53.130;18.104;2023-05-10T02:33:21;101392.20;;;
79495;BMP180;68951;53.130;18.104;2023-05-10T02:35:50;101394.20;;;
79495;BMP180;68951;53.130;18.104;2023-05-10T02:38:20;101391.60;;;
79495;BMP180;68951;53.130;18.104;2023-05-10T02:40:48;101395.40;;;
79495;BMP180;68951;53.130;18.104;2023-05-10T02:43:16;101394.20;;;
79495;BMP180;68951;53.130;18.104;2023-05-10T02:45:47;101394.00;;;
79495;BMP180;68951;53.130;18.104;2023-05-10T02:48:15;101391.00;;;
79495;BMP180;68951;53.130;18.104;2023-05-10T02:50:45;101390.80;;;
79495;BMP180;68951;53.130;18.104;2023-05-10T02:53:22;101390.60;;;
79495;BMP180;68951;53.130;18.104;2023-05-10T02:55:51;101393.00;;;
79495;BMP180;68951;53.130;18.104;2023-05-10T02:58:19;101388.60;;;
79495;BMP180;68951;53.130;18.104;2023-05-10T03:00:46;101395.00;;;
79495;BMP180;68951;53.130;18.104;2023-05-10T03:03:13;101395.00;;;
79495;BMP180;68951;53.130;18.104;2023-05-10T03:05:39;101395.80;;;
79495;BMP180;68951;53.130;18.104;2023-05-10T03:08:07;101395.20;;;
79495;BMP180;68951;53.130;18.104;2023-05-10T03:10:45;101398.80;;;
79495;BMP180;68951;53.130;18.104;2023-05-10T03:13:37;101398.20;;;
79495;BMP180;68951;53.130;18.104;2023-05-10T03:16:12;101398.60;;;
79495;BMP180;68951;53.130;18.104;2023-05-10T03:21:29;101391.20;;;
79495;BMP180;68951;53.130;18.104;2023-05-10T03:24:07;101395.80;;;
79495;BMP180;68951;53.130;18.104;2023-05-10T03:26:35;101395.80;;;
79495;BMP180;68951;53.130;18.104;2023-05-10T03:29:05;101394.20;;;
79495;BMP180;68951;53.130;18.104;2023-05-10T03:31:32;101394.60;;;
79495;BMP180;68951;53.130;18.104;2023-05-10T03:33:59;101390.20;;;
79495;BMP180;68951;53.130;18.104;2023-05-10T03:36:26;101388.80;;;
79495;BMP180;68951;53.130;18.104;2023-05-10T03:38:53;101391.40;;;
79495;BMP180;68951;53.130;18.104;2023-05-10T03:41:20;101393.40;;;
79495;BMP180;68951;53.130;18.104;2023-05-10T03:43:47;101389.00;;;
79495;BMP180;68951;53.130;18.104;2023-05-10T03:46:14;101390.80;;;
79495;BMP180;68951;53.130;18.104;2023-05-10T03:48:41;101392.00;;;
79495;BMP180;68951;53.130;18.104;2023-05-10T03:51:08;101390.20;;;
79495;BMP180;68951;53.130;18.104;2023-05-10T03:53:35;101394.40;;;
79495;BMP180;68951;53.130;18.104;2023-05-10T03:56:02;101390.60;;;
79495;BMP180;68951;53.130;18.104;2023-05-10T03:58:29;101389.40;;;
79495;BMP180;68951;53.130;18.104;2023-05-10T04:00:55;101388.60;;;
79495;BMP180;68951;53.130;18.104;2023-05-10T04:03:22;101383.20;;;
79495;BMP180;68951;53.130;18.104;2023-05-10T04:06:00;101383.80;;;
79495;BMP180;68951;53.130;18.104;2023-05-10T04:08:27;101386.40;;;
79495;BMP180;68951;53.130;18.104;2023-05-10T04:11:05;101388.00;;;
79495;BMP180;68951;53.130;18.104;2023-05-10T04:13:33;101390.20;;;
79495;BMP180;68951;53.130;18.104;2023-05-10T04:16:00;101387.80;;;
79495;BMP180;68951;53.130;18.104;2023-05-10T04:18:27;101389.20;;;
79495;BMP180;68951;53.130;18.104;2023-05-10T04:20:54;101388.00;;;
79495;BMP180;68951;53.130;18.104;2023-05-10T04:23:21;101384.20;;;
79495;BMP180;68951;53.130;18.104;2023-05-10T04:25:48;101387.60;;;
79495;BMP180;68951;53.130;18.104;2023-05-10T04:28:14;101386.60;;;
79495;BMP180;68951;53.130;18.104;2023-05-10T04:30:41;101385.60;;;
79495;BMP180;68951;53.130;18.104;2023-05-10T04:33:08;101385.60;;;
79495;BMP180;68951;53.130;18.104;2023-05-10T04:35:35;101383.20;;;
79495;BMP180;68951;53.130;18.104;2023-05-10T04:38:02;101385.00;;;
79495;BMP180;68951;53.130;18.104;2023-05-10T04:40:28;101375.60;;;
79495;BMP180;68951;53.130;18.104;2023-05-10T04:42:55;101378.60;;;
79495;BMP180;68951;53.130;18.104;2023-05-10T04:45:22;101374.80;;;
79495;BMP180;68951;53.130;18.104;2023-05-10T04:47:49;101375.60;;;
79495;BMP180;68951;53.130;18.104;2023-05-10T04:50:16;101380.80;;;
79495;BMP180;68951;53.130;18.104;2023-05-10T04:52:42;101378.80;;;
79495;BMP180;68951;53.130;18.104;2023-05-10T04:55:09;101381.20;;;
79495;BMP180;68951;53.130;18.104;2023-05-10T04:57:36;101381.00;;;
79495;BMP180;68951;53.130;18.104;2023-05-10T05:00:03;101379.60;;;
79495;BMP180;68951;53.130;18.104;2023-05-10T05:02:30;101378.80;;;
79495;BMP180;68951;53.130;18.104;2023-05-10T05:04:57;101377.20;;;
79495;BMP180;68951;53.130;18.104;2023-05-10T05:07:24;101370.60;;;
79495;BMP180;68951;53.130;18.104;2023-05-10T05:09:51;101376.60;;;
79495;BMP180;68951;53.130;18.104;2023-05-10T05:12:18;101377.40;;;
79495;BMP180;68951;53.130;18.104;2023-05-10T05:14:45;101381.00;;;
79495;BMP180;68951;53.130;18.104;2023-05-10T05:17:12;101381.60;;;
79495;BMP180;68951;53.130;18.104;2023-05-10T05:19:38;101381.40;;;
79495;BMP180;68951;53.130;18.104;2023-05-10T05:22:07;101379.40;;;
79495;BMP180;68951;53.130;18.104;2023-05-10T05:24:35;101371.80;;;
79495;BMP180;68951;53.130;18.104;2023-05-10T05:27:04;101372.40;;;
79495;BMP180;68951;53.130;18.104;2023-05-10T05:29:32;101373.00;;;
79495;BMP180;68951;53.130;18.104;2023-05-10T05:31:59;101375.00;;;
79495;BMP180;68951;53.130;18.104;2023-05-10T05:34:26;101373.40;;;
79495;BMP180;68951;53.130;18.104;2023-05-10T05:36:53;101375.40;;;
79495;BMP180;68951;53.130;18.104;2023-05-10T05:39:20;101370.80;;;
79495;BMP180;68951;53.130;18.104;2023-05-10T05:41:47;101371.40;;;
79495;BMP180;68951;53.130;18.104;2023-05-10T05:44:14;101372.20;;;
79495;BMP180;68951;53.130;18.104;2023-05-10T05:46:41;101373.60;;;
79495;BMP180;68951;53.130;18.104;2023-05-10T05:49:07;101371.60;;;
79495;BMP180;68951;53.130;18.104;2023-05-10T05:51:34;101369.20;;;
79495;BMP180;68951;53.130;18.104;2023-05-10T05:54:02;101370.00;;;
79495;BMP180;68951;53.130;18.104;2023-05-10T05:56:30;101374.20;;;
79495;BMP180;68951;53.130;18.104;2023-05-10T05:58:57;101369.80;;;
79495;BMP180;68951;53.130;18.104;2023-05-10T06:01:24;101373.20;;;
79495;BMP180;68951;53.130;18.104;2023-05-10T06:03:51;101370.40;;;
79495;BMP180;68951;53.130;18.104;2023-05-10T06:06:18;101370.80;;;
79495;BMP180;68951;53.130;18.104;2023-05-10T06:08:44;101372.00;;;
79495;BMP180;68951;53.130;18.104;2023-05-10T06:11:11;101373.00;;;
79495;BMP180;68951;53.130;18.104;2023-05-10T06:13:38;101374.80;;;
79495;BMP180;68951;53.130;18.104;2023-05-10T06:16:05;101377.20;;;
79495;BMP180;68951;53.130;18.104;2023-05-10T06:18:32;101375.40;;;
79495;BMP180;68951;53.130;18.104;2023-05-10T06:20:59;101379.20;;;
79495;BMP180;68951;53.130;18.104;2023-05-10T06:23:26;101379.80;;;
79495;BMP180;68951;53.130;18.104;2023-05-10T06:25:53;101379.40;;;
79495;BMP180;68951;53.130;18.104;2023-05-10T06:28:20;101384.60;;;
79495;BMP180;68951;53.130;18.104;2023-05-10T06:30:47;101375.60;;;
79495;BMP180;68951;53.130;18.104;2023-05-10T06:33:14;101381.60;;;
79495;BMP180;68951;53.130;18.104;2023-05-10T06:35:42;101384.20;;;
79495;BMP180;68951;53.130;18.104;2023-05-10T06:38:09;101384.60;;;
79495;BMP180;68951;53.130;18.104;2023-05-10T06:40:36;101382.60;;;
79495;BMP180;68951;53.130;18.104;2023-05-10T06:43:03;101379.60;;;
79495;BMP180;68951;53.130;18.104;2023-05-10T06:45:30;101385.40;;;
79495;BMP180;68951;53.130;18.104;2023-05-10T06:47:57;101386.60;;;
79495;BMP180;68951;53.130;18.104;2023-05-10T06:50:24;101383.20;;;
79495;BMP180;68951;53.130;18.104;2023-05-10T06:52:51;101379.80;;;
79495;BMP180;68951;53.130;18.104;2023-05-10T06:55:18;101376.00;;;
79495;BMP180;68951;53.130;18.104;2023-05-10T06:57:45;101382.20;;;
79495;BMP180;68951;53.130;18.104;2023-05-10T07:00:12;101382.40;;;
79495;BMP180;68951;53.130;18.104;2023-05-10T07:02:39;101383.20;;;
79495;BMP180;68951;53.130;18.104;2023-05-10T07:05:06;101382.80;;;
79495;BMP180;68951;53.130;18.104;2023-05-10T07:07:33;101389.20;;;
79495;BMP180;68951;53.130;18.104;2023-05-10T07:10:00;101387.80;;;
79495;BMP180;68951;53.130;18.104;2023-05-10T07:12:27;101383.60;;;
79495;BMP180;68951;53.130;18.104;2023-05-10T07:14:54;101386.20;;;
79495;BMP180;68951;53.130;18.104;2023-05-10T07:17:21;101380.60;;;
79495;BMP180;68951;53.130;18.104;2023-05-10T07:19:48;101384.40;;;
79495;BMP180;68951;53.130;18.104;2023-05-10T07:22:16;101378.40;;;
79495;BMP180;68951;53.130;18.104;2023-05-10T07:24:43;101374.40;;;
79495;BMP180;68951;53.130;18.104;2023-05-10T07:27:10;101377.60;;;
79495;BMP180;68951;53.130;18.104;2023-05-10T07:29:37;101379.60;;;
79495;BMP180;68951;53.130;18.104;2023-05-10T07:32:05;101383.60;;;
79495;BMP180;68951;53.130;18.104;2023-05-10T07:34:32;101381.20;;;
79495;BMP180;68951;53.130;18.104;2023-05-10T07:36:59;101387.20;;;
79495;BMP180;68951;53.130;18.104;2023-05-10T07:39:27;101385.40;;;
79495;BMP180;68951;53.130;18.104;2023-05-10T07:41:55;101381.60;;;
79495;BMP180;68951;53.130;18.104;2023-05-10T07:44:22;101380.20;;;
79495;BMP180;68951;53.130;18.104;2023-05-10T07:46:49;101385.00;;;
79495;BMP180;68951;53.130;18.104;2023-05-10T07:49:16;101375.00;;;
79495;BMP180;68951;53.130;18.104;2023-05-10T07:51:43;101385.20;;;
79495;BMP180;68951;53.130;18.104;2023-05-10T07:54:10;101382.00;;;
79495;BMP180;68951;53.130;18.104;2023-05-10T07:56:37;101383.40;;;
79495;BMP180;68951;53.130;18.104;2023-05-10T07:59:04;101385.40;;;
79495;BMP180;68951;53.130;18.104;2023-05-10T08:01:34;101386.60;;;
79495;BMP180;68951;53.130;18.104;2023-05-10T08:04:01;101390.40;;;
79495;BMP180;68951;53.130;18.104;2023-05-10T08:06:28;101385.00;;;
79495;BMP180;68951;53.130;18.104;2023-05-10T08:08:56;101385.40;;;
79495;BMP180;68951;53.130;18.104;2023-05-10T08:11:23;101383.80;;;
79495;BMP180;68951;53.130;18.104;2023-05-10T08:13:50;101382.20;;;
79495;BMP180;68951;53.130;18.104;2023-05-10T08:16:18;101387.80;;;
79495;BMP180;68951;53.130;18.104;2023-05-10T08:18:46;101376.40;;;
79495;BMP180;68951;53.130;18.104;2023-05-10T08:21:14;101373.20;;;
79495;BMP180;68951;53.130;18.104;2023-05-10T08:23:42;101370.80;;;
79495;BMP180;68951;53.130;18.104;2023-05-10T08:26:10;101370.20;;;
79495;BMP180;68951;53.130;18.104;2023-05-10T08:28:37;101379.40;;;
79495;BMP180;68951;53.130;18.104;2023-05-10T08:31:05;101371.80;;;
79495;BMP180;68951;53.130;18.104;2023-05-10T08:33:32;101376.60;;;
79495;BMP180;68951;53.130;18.104;2023-05-10T08:35:59;101373.40;;;
79495;BMP180;68951;53.130;18.104;2023-05-10T08:38:26;101381.40;;;
79495;BMP180;68951;53.130;18.104;2023-05-10T08:40:55;101373.60;;;
79495;BMP180;68951;53.130;18.104;2023-05-10T08:43:27;101379.60;;;
79495;BMP180;68951;53.130;18.104;2023-05-10T08:45:56;101375.00;;;
79495;BMP180;68951;53.130;18.104;2023-05-10T08:48:24;101383.20;;;
79495;BMP180;68951;53.130;18.104;2023-05-10T08:50:53;101374.60;;;
79495;BMP180;68951;53.130;18.104;2023-05-10T08:53:24;101371.40;;;
79495;BMP180;68951;53.130;18.104;2023-05-10T08:55:53;101376.40;;;
79495;BMP180;68951;53.130;18.104;2023-05-10T08:58:20;101379.20;;;
79495;BMP180;68951;53.130;18.104;2023-05-10T09:00:49;101377.20;;;
79495;BMP180;68951;53.130;18.104;2023-05-10T09:03:17;101380.00;;;
79495;BMP180;68951;53.130;18.104;2023-05-10T09:05:45;101378.20;;;
79495;BMP180;68951;53.130;18.104;2023-05-10T09:08:13;101379.80;;;
79495;BMP180;68951;53.130;18.104;2023-05-10T09:10:41;101377.00;;;
79495;BMP180;68951;53.130;18.104;2023-05-10T09:13:11;101381.60;;;
79495;BMP180;68951;53.130;18.104;2023-05-10T09:15:41;101388.60;;;
79495;BMP180;68951;53.130;18.104;2023-05-10T09:18:07;101384.00;;;
79495;BMP180;68951;53.130;18.104;2023-05-10T09:20:34;101377.40;;;
79495;BMP180;68951;53.130;18.104;2023-05-10T09:23:01;101382.80;;;
79495;BMP180;68951;53.130;18.104;2023-05-10T09:25:28;101379.80;;;
79495;BMP180;68951;53.130;18.104;2023-05-10T09:27:56;101372.20;;;
79495;BMP180;68951;53.130;18.104;2023-05-10T09:30:27;101376.00;;;
79495;BMP180;68951;53.130;18.104;2023-05-10T09:32:56;101381.40;;;
79495;BMP180;68951;53.130;18.104;2023-05-10T09:35:26;101374.40;;;
79495;BMP180;68951;53.130;18.104;2023-05-10T09:37:57;101376.00;;;
79495;BMP180;68951;53.130;18.104;2023-05-10T09:40:26;101379.40;;;
79495;BMP180;68951;53.130;18.104;2023-05-10T09:43:01;101386.60;;;
79495;BMP180;68951;53.130;18.104;2023-05-10T09:45:32;101377.20;;;
79495;BMP180;68951;53.130;18.104;2023-05-10T09:48:01;101378.20;;;
79495;BMP180;68951;53.130;18.104;2023-05-10T09:50:30;101369.00;;;
79495;BMP180;68951;53.130;18.104;2023-05-10T09:53:00;101373.60;;;
79495;BMP180;68951;53.130;18.104;2023-05-10T09:55:46;101363.60;;;
79495;BMP180;68951;53.130;18.104;2023-05-10T09:58:13;101378.20;;;
79495;BMP180;68951;53.130;18.104;2023-05-10T10:00:42;101379.40;;;
79495;BMP180;68951;53.130;18.104;2023-05-10T10:03:18;101368.60;;;
79495;BMP180;68951;53.130;18.104;2023-05-10T10:05:47;101375.40;;;
79495;BMP180;68951;53.130;18.104;2023-05-10T10:08:15;101370.00;;;
79495;BMP180;68951;53.130;18.104;2023-05-10T10:10:43;101353.60;;;
79495;BMP180;68951;53.130;18.104;2023-05-10T10:13:13;101364.20;;;
79495;BMP180;68951;53.130;18.104;2023-05-10T10:15:42;101365.40;;;
79495;BMP180;68951;53.130;18.104;2023-05-10T10:18:13;101357.80;;;
79495;BMP180;68951;53.130;18.104;2023-05-10T10:20:42;101360.00;;;
79495;BMP180;68951;53.130;18.104;2023-05-10T10:23:08;101357.20;;;
79495;BMP180;68951;53.130;18.104;2023-05-10T10:25:38;101355.80;;;
79495;BMP180;68951;53.130;18.104;2023-05-10T10:34:30;101360.20;;;
79495;BMP180;68951;53.130;18.104;2023-05-10T10:37:04;101355.20;;;
79495;BMP180;68951;53.130;18.104;2023-05-10T10:39:31;101360.00;;;
79495;BMP180;68951;53.130;18.104;2023-05-10T10:41:59;101356.00;;;
79495;BMP180;68951;53.130;18.104;2023-05-10T10:44:33;101350.40;;;
79495;BMP180;68951;53.130;18.104;2023-05-10T10:50:11;101361.20;;;
79495;BMP180;68951;53.130;18.104;2023-05-10T10:52:43;101354.80;;;
79495;BMP180;68951;53.130;18.104;2023-05-10T10:55:18;101351.60;;;
79495;BMP180;68951;53.130;18.104;2023-05-10T10:57:56;101345.40;;;
79495;BMP180;68951;53.130;18.104;2023-05-10T11:00:32;101340.20;;;
79495;BMP180;68951;53.130;18.104;2023-05-10T11:03:05;101344.60;;;
79495;BMP180;68951;53.130;18.104;2023-05-10T11:08:29;101351.40;;;
79495;BMP180;68951;53.130;18.104;2023-05-10T11:13:40;101343.40;;;
79495;BMP180;68951;53.130;18.104;2023-05-10T11:16:21;101344.40;;;
79495;BMP180;68951;53.130;18.104;2023-05-10T11:19:11;101345.20;;;
79495;BMP180;68951;53.130;18.104;2023-05-10T11:22:12;101354.00;;;
79495;BMP180;68951;53.130;18.104;2023-05-10T11:24:56;101340.60;;;
79495;BMP180;68951;53.130;18.104;2023-05-10T11:27:23;101350.40;;;
79495;BMP180;68951;53.130;18.104;2023-05-10T11:29:53;101345.00;;;
79495;BMP180;68951;53.130;18.104;2023-05-10T11:32:20;101336.80;;;
79495;BMP180;68951;53.130;18.104;2023-05-10T11:34:47;101336.60;;;
79495;BMP180;68951;53.130;18.104;2023-05-10T11:37:14;101345.60;;;
79495;BMP180;68951;53.130;18.104;2023-05-10T11:39:45;101339.20;;;
79495;BMP180;68951;53.130;18.104;2023-05-10T11:42:14;101332.80;;;
79495;BMP180;68951;53.130;18.104;2023-05-10T11:44:40;101328.40;;;
79495;BMP180;68951;53.130;18.104;2023-05-10T11:47:08;101323.60;;;
79495;BMP180;68951;53.130;18.104;2023-05-10T11:49:35;101342.00;;;
79495;BMP180;68951;53.130;18.104;2023-05-10T11:52:07;101342.60;;;
79495;BMP180;68951;53.130;18.104;2023-05-10T11:54:34;101334.20;;;
79495;BMP180;68951;53.130;18.104;2023-05-10T11:57:01;101333.80;;;
79495;BMP180;68951;53.130;18.104;2023-05-10T11:59:29;101326.80;;;
79495;BMP180;68951;53.130;18.104;2023-05-10T12:01:56;101337.00;;;
79495;BMP180;68951;53.130;18.104;2023-05-10T12:04:24;101333.60;;;
79495;BMP180;68951;53.130;18.104;2023-05-10T12:06:51;101325.20;;;
79495;BMP180;68951;53.130;18.104;2023-05-10T12:09:18;101335.40;;;
79495;BMP180;68951;53.130;18.104;2023-05-10T12:11:45;101331.60;;;
79495;BMP180;68951;53.130;18.104;2023-05-10T12:14:12;101322.60;;;
79495;BMP180;68951;53.130;18.104;2023-05-10T12:16:39;101325.40;;;
79495;BMP180;68951;53.130;18.104;2023-05-10T12:19:06;101326.40;;;
79495;BMP180;68951;53.130;18.104;2023-05-10T12:21:33;101332.40;;;
79495;BMP180;68951;53.130;18.104;2023-05-10T12:24:03;101333.40;;;
79495;BMP180;68951;53.130;18.104;2023-05-10T12:26:30;101336.40;;;
79495;BMP180;68951;53.130;18.104;2023-05-10T12:29:18;101336.60;;;
79495;BMP180;68951;53.130;18.104;2023-05-10T12:31:57;101333.20;;;
79495;BMP180;68951;53.130;18.104;2023-05-10T12:34:34;101331.60;;;
79495;BMP180;68951;53.130;18.104;2023-05-10T12:37:02;101331.20;;;
79495;BMP180;68951;53.130;18.104;2023-05-10T12:39:43;101334.40;;;
79495;BMP180;68951;53.130;18.104;2023-05-10T12:42:11;101329.20;;;
79495;BMP180;68951;53.130;18.104;2023-05-10T12:44:38;101334.40;;;
79495;BMP180;68951;53.130;18.104;2023-05-10T12:47:05;101335.80;;;
79495;BMP180;68951;53.130;18.104;2023-05-10T12:49:32;101347.80;;;
79495;BMP180;68951;53.130;18.104;2023-05-10T12:52:00;101339.00;;;
79495;BMP180;68951;53.130;18.104;2023-05-10T12:54:27;101334.40;;;
79495;BMP180;68951;53.130;18.104;2023-05-10T12:56:54;101333.20;;;
79495;BMP180;68951;53.130;18.104;2023-05-10T12:59:21;101329.20;;;
79495;BMP180;68951;53.130;18.104;2023-05-10T13:01:49;101324.20;;;
79495;BMP180;68951;53.130;18.104;2023-05-10T13:04:16;101323.80;;;
79495;BMP180;68951;53.130;18.104;2023-05-10T13:06:43;101328.40;;;
79495;BMP180;68951;53.130;18.104;2023-05-10T13:09:10;101332.80;;;
79495;BMP180;68951;53.130;18.104;2023-05-10T13:11:37;101321.60;;;
79495;BMP180;68951;53.130;18.104;2023-05-10T13:14:04;101327.20;;;
79495;BMP180;68951;53.130;18.104;2023-05-10T13:16:31;101325.80;;;
79495;BMP180;68951;53.130;18.104;2023-05-10T13:18:58;101337.40;;;
79495;BMP180;68951;53.130;18.104;2023-05-10T13:21:25;101315.40;;;
79495;BMP180;68951;53.130;18.104;2023-05-10T13:23:53;101315.00;;;
79495;BMP180;68951;53.130;18.104;2023-05-10T13:26:20;101318.80;;;
79495;BMP180;68951;53.130;18.104;2023-05-10T13:28:48;101316.20;;;
79495;BMP180;68951;53.130;18.104;2023-05-10T13:31:16;101319.00;;;
79495;BMP180;68951;53.130;18.104;2023-05-10T13:33:43;101305.60;;;
79495;BMP180;68951;53.130;18.104;2023-05-10T13:36:10;101312.20;;;
79495;BMP180;68951;53.130;18.104;2023-05-10T13:38:36;101300.20;;;
79495;BMP180;68951;53.130;18.104;2023-05-10T13:41:04;101300.80;;;
79495;BMP180;68951;53.130;18.104;2023-05-10T13:43:31;101292.40;;;
79495;BMP180;68951;53.130;18.104;2023-05-10T13:45:58;101311.40;;;
79495;BMP180;68951;53.130;18.104;2023-05-10T13:48:25;101300.80;;;
79495;BMP180;68951;53.130;18.104;2023-05-10T13:50:52;101304.20;;;
79495;BMP180;68951;53.130;18.104;2023-05-10T13:53:19;101302.60;;;
79495;BMP180;68951;53.130;18.104;2023-05-10T13:55:46;101302.60;;;
79495;BMP180;68951;53.130;18.104;2023-05-10T13:58:13;101290.60;;;
79495;BMP180;68951;53.130;18.104;2023-05-10T14:00:40;101293.80;;;
79495;BMP180;68951;53.130;18.104;2023-05-10T14:03:07;101295.40;;;
79495;BMP180;68951;53.130;18.104;2023-05-10T14:05:37;101290.00;;;
79495;BMP180;68951;53.130;18.104;2023-05-10T14:08:04;101287.40;;;
79495;BMP180;68951;53.130;18.104;2023-05-10T14:10:31;101287.40;;;
79495;BMP180;68951;53.130;18.104;2023-05-10T14:12:58;101294.60;;;
79495;BMP180;68951;53.130;18.104;2023-05-10T14:15:25;101289.40;;;
79495;BMP180;68951;53.130;18.104;2023-05-10T14:17:52;101288.20;;;
79495;BMP180;68951;53.130;18.104;2023-05-10T14:20:19;101274.80;;;
79495;BMP180;68951;53.130;18.104;2023-05-10T14:22:46;101282.80;;;
79495;BMP180;68951;53.130;18.104;2023-05-10T14:25:14;101280.40;;;
79495;BMP180;68951;53.130;18.104;2023-05-10T14:27:41;101278.20;;;
79495;BMP180;68951;53.130;18.104;2023-05-10T14:30:08;101273.40;;;
79495;BMP180;68951;53.130;18.104;2023-05-10T14:32:35;101278.80;;;
79495;BMP180;68951;53.130;18.104;2023-05-10T14:35:03;101276.60;;;
79495;BMP180;68951;53.130;18.104;2023-05-10T14:37:30;101272.40;;;
79495;BMP180;68951;53.130;18.104;2023-05-10T14:39:58;101270.00;;;
79495;BMP180;68951;53.130;18.104;2023-05-10T14:42:25;101261.40;;;
79495;BMP180;68951;53.130;18.104;2023-05-10T14:44:52;101257.40;;;
79495;BMP180;68951;53.130;18.104;2023-05-10T14:47:19;101260.20;;;
79495;BMP180;68951;53.130;18.104;2023-05-10T14:49:46;101265.40;;;
79495;BMP180;68951;53.130;18.104;2023-05-10T14:52:13;101263.60;;;
79495;BMP180;68951;53.130;18.104;2023-05-10T14:54:41;101268.00;;;
79495;BMP180;68951;53.130;18.104;2023-05-10T14:57:08;101258.40;;;
79495;BMP180;68951;53.130;18.104;2023-05-10T14:59:35;101255.20;;;
79495;BMP180;68951;53.130;18.104;2023-05-10T15:02:02;101256.40;;;
79495;BMP180;68951;53.130;18.104;2023-05-10T15:04:30;101249.40;;;
79495;BMP180;68951;53.130;18.104;2023-05-10T15:06:57;101252.40;;;
79495;BMP180;68951;53.130;18.104;2023-05-10T15:09:26;101256.40;;;
79495;BMP180;68951;53.130;18.104;2023-05-10T15:11:55;101243.80;;;
79495;BMP180;68951;53.130;18.104;2023-05-10T15:14:24;101251.00;;;
79495;BMP180;68951;53.130;18.104;2023-05-10T15:16:51;101246.20;;;
79495;BMP180;68951;53.130;18.104;2023-05-10T15:19:19;101255.80;;;
79495;BMP180;68951;53.130;18.104;2023-05-10T15:21:46;101244.80;;;
79495;BMP180;68951;53.130;18.104;2023-05-10T15:24:14;101248.00;;;
79495;BMP180;68951;53.130;18.104;2023-05-10T15:26:41;101247.60;;;